sensor_id;sensor_type;location;lat;lon;timestamp;pressure;altitude;pressure_sealevel;temperature;humidity
71621;BME280;59471;42.254;23.102;2023-03-11T00:00:31;94207.97;;;10.30;94.07
71621;BME280;59471;42.254;23.102;2023-03-11T00:03:00;94200.34;;;10.29;94.34
71621;BME280;59471;42.254;23.102;2023-03-11T00:05:34;94196.97;;;9.96;96.47
71621;BME280;59471;42.254;23.102;2023-03-11T00:08:02;94174.81;;;9.74;99.15
71621;BME280;59471;42.254;23.102;2023-03-11T00:10:38;94174.72;;;9.62;99.88
71621;BME280;59471;42.254;23.102;2023-03-11T00:13:09;94192.22;;;9.62;99.08
71621;BME280;59471;42.254;23.102;2023-03-11T00:15:37;94188.34;;;9.64;97.29
71621;BME280;59471;42.254;23.102;2023-03-11T00:18:04;94178.31;;;9.61;95.75
71621;BME280;59471;42.254;23.102;2023-03-11T00:20:35;94185.13;;;9.69;94.46
71621;BME280;59471;42.254;23.102;2023-03-11T00:23:02;94185.25;;;9.74;91.55
71621;BME280;59471;42.254;23.102;2023-03-11T00:25:30;94189.22;;;9.83;91.15
71621;BME280;59471;42.254;23.102;2023-03-11T00:27:57;94186.56;;;9.90;87.76
71621;BME280;59471;42.254;23.102;2023-03-11T00:30:23;94206.59;;;10.03;87.10
71621;BME280;59471;42.254;23.102;2023-03-11T00:32:51;94188.72;;;10.18;85.57
71621;BME280;59471;42.254;23.102;2023-03-11T00:35:21;94201.97;;;10.23;85.09
71621;BME280;59471;42.254;23.102;2023-03-11T00:37:48;94191.72;;;10.28;84.54
71621;BME280;59471;42.254;23.102;2023-03-11T00:40:18;94193.94;;;10.25;84.46
71621;BME280;59471;42.254;23.102;2023-03-11T00:42:44;94187.03;;;10.30;83.21
71621;BME280;59471;42.254;23.102;2023-03-11T00:45:11;94187.47;;;10.27;82.11
71621;BME280;59471;42.254;23.102;2023-03-11T00:47:38;94179.34;;;10.35;84.05
71621;BME280;59471;42.254;23.102;2023-03-11T00:50:05;94181.47;;;10.20;84.31
71621;BME280;59471;42.254;23.102;2023-03-11T00:52:33;94172.97;;;10.31;83.49
71621;BME280;59471;42.254;23.102;2023-03-11T00:54:59;94163.75;;;10.22;83.98
71621;BME280;59471;42.254;23.102;2023-03-11T00:57:25;94159.72;;;10.26;82.63
71621;BME280;59471;42.254;23.102;2023-03-11T00:59:53;94154.66;;;10.31;81.41
71621;BME280;59471;42.254;23.102;2023-03-11T01:02:20;94171.06;;;10.38;80.46
71621;BME280;59471;42.254;23.102;2023-03-11T01:04:45;94163.50;;;10.49;81.29
71621;BME280;59471;42.254;23.102;2023-03-11T01:07:11;94164.69;;;10.34;81.92
71621;BME280;59471;42.254;23.102;2023-03-11T01:09:36;94157.75;;;10.40;82.98
71621;BME280;59471;42.254;23.102;2023-03-11T01:12:02;94151.44;;;10.29;81.63
71621;BME280;59471;42.254;23.102;2023-03-11T01:14:27;94137.00;;;10.20;83.34
71621;BME280;59471;42.254;23.102;2023-03-11T01:16:53;94130.81;;;10.14;83.58
71621;BME280;59471;42.254;23.102;2023-03-11T01:19:19;94136.91;;;10.08;83.06
71621;BME280;59471;42.254;23.102;2023-03-11T01:21:45;94144.41;;;10.23;80.25
71621;BME280;59471;42.254;23.102;2023-03-11T01:24:11;94129.66;;;10.10;83.11
71621;BME280;59471;42.254;23.102;2023-03-11T01:26:36;94136.84;;;9.96;84.68
71621;BME280;59471;42.254;23.102;2023-03-11T01:29:02;94129.00;;;9.96;85.52
71621;BME280;59471;42.254;23.102;2023-03-11T01:31:28;94117.66;;;10.03;84.27
71621;BME280;59471;42.254;23.102;2023-03-11T01:33:53;94097.47;;;10.10;82.60
71621;BME280;59471;42.254;23.102;2023-03-11T01:36:19;94095.75;;;10.22;81.26
71621;BME280;59471;42.254;23.102;2023-03-11T01:38:44;94095.94;;;10.20;82.13
71621;BME280;59471;42.254;23.102;2023-03-11T01:41:10;94086.72;;;10.18;80.46
71621;BME280;59471;42.254;23.102;2023-03-11T01:46:21;94064.66;;;10.32;79.87
71621;BME280;59471;42.254;23.102;2023-03-11T01:49:13;94064.22;;;10.35;78.89
71621;BME280;59471;42.254;23.102;2023-03-11T01:51:43;94062.63;;;10.34;78.27
71621;BME280;59471;42.254;23.102;2023-03-11T01:54:32;94062.63;;;10.34;79.98
71621;BME280;59471;42.254;23.102;2023-03-11T01:57:01;94052.72;;;10.36;78.05
71621;BME280;59471;42.254;23.102;2023-03-11T01:59:35;94057.69;;;10.26;78.46
71621;BME280;59471;42.254;23.102;2023-03-11T02:04:36;94043.84;;;10.01;80.91
71621;BME280;59471;42.254;23.102;2023-03-11T02:07:03;94073.31;;;9.71;84.53
71621;BME280;59471;42.254;23.102;2023-03-11T02:09:31;94082.91;;;9.27;87.77
71621;BME280;59471;42.254;23.102;2023-03-11T02:11:57;94087.09;;;9.03;90.50
71621;BME280;59471;42.254;23.102;2023-03-11T02:14:24;94099.34;;;9.02;90.75
71621;BME280;59471;42.254;23.102;2023-03-11T02:16:52;94092.13;;;9.29;89.25
71621;BME280;59471;42.254;23.102;2023-03-11T02:19:40;94102.16;;;9.33;89.25
71621;BME280;59471;42.254;23.102;2023-03-11T02:22:17;94096.97;;;9.26;89.70
71621;BME280;59471;42.254;23.102;2023-03-11T02:27:48;94115.25;;;9.26;90.10
71621;BME280;59471;42.254;23.102;2023-03-11T02:30:16;94105.81;;;9.25;89.93
71621;BME280;59471;42.254;23.102;2023-03-11T02:32:43;94111.66;;;9.20;90.05
71621;BME280;59471;42.254;23.102;2023-03-11T02:35:13;94124.53;;;9.22;90.14
71621;BME280;59471;42.254;23.102;2023-03-11T02:37:47;94134.00;;;9.16;90.62
71621;BME280;59471;42.254;23.102;2023-03-11T02:42:46;94154.09;;;9.16;91.17
71621;BME280;59471;42.254;23.102;2023-03-11T02:45:16;94158.06;;;9.25;90.91
71621;BME280;59471;42.254;23.102;2023-03-11T02:47:43;94166.50;;;9.27;90.95
71621;BME280;59471;42.254;23.102;2023-03-11T02:50:11;94172.91;;;9.31;90.05
71621;BME280;59471;42.254;23.102;2023-03-11T02:52:38;94169.88;;;9.34;89.98
71621;BME280;59471;42.254;23.102;2023-03-11T02:55:04;94174.91;;;9.29;90.00
71621;BME280;59471;42.254;23.102;2023-03-11T02:57:31;94180.13;;;9.29;90.41
71621;BME280;59471;42.254;23.102;2023-03-11T02:59:56;94179.28;;;9.35;90.39
71621;BME280;59471;42.254;23.102;2023-03-11T03:02:22;94179.16;;;9.30;90.14
71621;BME280;59471;42.254;23.102;2023-03-11T03:04:47;94174.91;;;9.29;90.32
71621;BME280;59471;42.254;23.102;2023-03-11T03:07:13;94171.31;;;9.30;89.84
71621;BME280;59471;42.254;23.102;2023-03-11T03:09:38;94171.47;;;9.35;89.24
71621;BME280;59471;42.254;23.102;2023-03-11T03:12:04;94166.84;;;9.37;89.56
71621;BME280;59471;42.254;23.102;2023-03-11T03:14:30;94164.00;;;9.39;88.88
71621;BME280;59471;42.254;23.102;2023-03-11T03:16:56;94171.31;;;9.30;89.26
71621;BME280;59471;42.254;23.102;2023-03-11T03:19:21;94164.00;;;9.39;89.66
71621;BME280;59471;42.254;23.102;2023-03-11T03:21:47;94165.16;;;9.18;89.63
71621;BME280;59471;42.254;23.102;2023-03-11T03:24:14;94163.63;;;8.97;90.64
71621;BME280;59471;42.254;23.102;2023-03-11T03:26:39;94167.19;;;9.09;90.69
71621;BME280;59471;42.254;23.102;2023-03-11T03:29:05;94166.22;;;9.35;89.25
71621;BME280;59471;42.254;23.102;2023-03-11T03:31:31;94168.56;;;9.50;87.91
71621;BME280;59471;42.254;23.102;2023-03-11T03:33:57;94155.69;;;9.48;87.95
71621;BME280;59471;42.254;23.102;2023-03-11T03:36:22;94152.19;;;9.61;86.46
71621;BME280;59471;42.254;23.102;2023-03-11T03:38:52;94142.31;;;9.38;86.14
71621;BME280;59471;42.254;23.102;2023-03-11T03:41:21;94147.00;;;9.55;85.95
71621;BME280;59471;42.254;23.102;2023-03-11T03:43:47;94150.41;;;9.62;84.80
71621;BME280;59471;42.254;23.102;2023-03-11T03:46:13;94153.44;;;9.59;85.27
71621;BME280;59471;42.254;23.102;2023-03-11T03:48:39;94148.09;;;9.47;85.94
71621;BME280;59471;42.254;23.102;2023-03-11T03:51:07;94156.53;;;9.49;86.08
71621;BME280;59471;42.254;23.102;2023-03-11T03:53:34;94157.47;;;9.55;85.36
71621;BME280;59471;42.254;23.102;2023-03-11T03:56:12;94155.28;;;9.51;84.57
71621;BME280;59471;42.254;23.102;2023-03-11T03:58:39;94153.44;;;9.59;84.38
71621;BME280;59471;42.254;23.102;2023-03-11T04:01:05;94157.63;;;9.60;84.71
71621;BME280;59471;42.254;23.102;2023-03-11T04:03:33;94173.13;;;9.55;84.85
71621;BME280;59471;42.254;23.102;2023-03-11T04:06:20;94173.94;;;9.55;84.47
71621;BME280;59471;42.254;23.102;2023-03-11T04:08:46;94182.59;;;9.24;85.58
71621;BME280;59471;42.254;23.102;2023-03-11T04:11:12;94191.34;;;9.36;84.92
71621;BME280;59471;42.254;23.102;2023-03-11T04:13:38;94179.75;;;9.25;84.68
71621;BME280;59471;42.254;23.102;2023-03-11T04:16:05;94182.00;;;9.54;83.95
71621;BME280;59471;42.254;23.102;2023-03-11T04:18:32;94180.00;;;9.56;83.75
71621;BME280;59471;42.254;23.102;2023-03-11T04:20:58;94174.47;;;9.64;83.44
71621;BME280;59471;42.254;23.102;2023-03-11T04:23:24;94173.91;;;9.62;81.48
71621;BME280;59471;42.254;23.102;2023-03-11T04:25:50;94177.00;;;9.77;80.69
71621;BME280;59471;42.254;23.102;2023-03-11T04:28:15;94174.88;;;9.92;80.08
71621;BME280;59471;42.254;23.102;2023-03-11T04:30:41;94176.03;;;9.46;82.02
71621;BME280;59471;42.254;23.102;2023-03-11T04:33:07;94179.72;;;9.64;82.38
71621;BME280;59471;42.254;23.102;2023-03-11T04:35:32;94180.50;;;9.71;80.75
71621;BME280;59471;42.254;23.102;2023-03-11T04:37:59;94180.63;;;9.76;79.83
71621;BME280;59471;42.254;23.102;2023-03-11T04:40:25;94178.13;;;9.88;79.15
71621;BME280;59471;42.254;23.102;2023-03-11T04:42:52;94173.53;;;9.83;78.77
71621;BME280;59471;42.254;23.102;2023-03-11T04:45:18;94165.75;;;9.77;78.63
71621;BME280;59471;42.254;23.102;2023-03-11T04:47:47;94174.81;;;9.74;78.90
71621;BME280;59471;42.254;23.102;2023-03-11T04:50:13;94175.41;;;9.76;78.15
71621;BME280;59471;42.254;23.102;2023-03-11T04:52:39;94177.81;;;9.78;78.38
71621;BME280;59471;42.254;23.102;2023-03-11T04:55:05;94178.38;;;9.80;78.71
71621;BME280;59471;42.254;23.102;2023-03-11T04:57:31;94182.19;;;9.84;78.71
71621;BME280;59471;42.254;23.102;2023-03-11T04:59:56;94183.53;;;9.68;78.68
71621;BME280;59471;42.254;23.102;2023-03-11T05:02:22;94183.59;;;9.55;80.52
71621;BME280;59471;42.254;23.102;2023-03-11T05:04:48;94189.25;;;9.51;81.81
71621;BME280;59471;42.254;23.102;2023-03-11T05:07:13;94180.94;;;9.29;83.85
71621;BME280;59471;42.254;23.102;2023-03-11T05:09:39;94185.31;;;9.36;83.73
71621;BME280;59471;42.254;23.102;2023-03-11T05:12:05;94186.09;;;9.43;83.53
71621;BME280;59471;42.254;23.102;2023-03-11T05:14:30;94192.34;;;9.35;83.29
71621;BME280;59471;42.254;23.102;2023-03-11T05:16:56;94197.84;;;9.27;84.49
71621;BME280;59471;42.254;23.102;2023-03-11T05:19:21;94199.47;;;9.21;85.92
71621;BME280;59471;42.254;23.102;2023-03-11T05:21:57;94191.31;;;9.11;86.56
71621;BME280;59471;42.254;23.102;2023-03-11T05:24:23;94200.34;;;9.09;87.18
71621;BME280;59471;42.254;23.102;2023-03-11T05:26:50;94197.97;;;9.00;87.95
71621;BME280;59471;42.254;23.102;2023-03-11T05:29:16;94205.97;;;9.05;87.59
71621;BME280;59471;42.254;23.102;2023-03-11T05:31:42;94208.06;;;8.84;89.07
71621;BME280;59471;42.254;23.102;2023-03-11T05:34:07;94208.91;;;8.77;89.06
71621;BME280;59471;42.254;23.102;2023-03-11T05:36:33;94223.13;;;8.81;88.99
71621;BME280;59471;42.254;23.102;2023-03-11T05:38:59;94219.50;;;8.89;89.35
71621;BME280;59471;42.254;23.102;2023-03-11T05:41:24;94223.72;;;8.90;88.34
71621;BME280;59471;42.254;23.102;2023-03-11T05:43:50;94227.69;;;8.99;89.13
71621;BME280;59471;42.254;23.102;2023-03-11T05:46:15;94220.09;;;8.91;88.01
71621;BME280;59471;42.254;23.102;2023-03-11T05:48:41;94228.06;;;9.10;88.38
71621;BME280;59471;42.254;23.102;2023-03-11T05:51:07;94230.38;;;8.73;91.01
71621;BME280;59471;42.254;23.102;2023-03-11T05:53:34;94230.22;;;8.61;92.93
71621;BME280;59471;42.254;23.102;2023-03-11T05:56:00;94236.22;;;8.75;91.89
71621;BME280;59471;42.254;23.102;2023-03-11T05:58:30;94237.38;;;8.86;92.45
71621;BME280;59471;42.254;23.102;2023-03-11T06:00:56;94235.75;;;8.91;91.28
71621;BME280;59471;42.254;23.102;2023-03-11T06:03:24;94239.00;;;8.80;92.07
71621;BME280;59471;42.254;23.102;2023-03-11T06:05:50;94241.78;;;8.92;91.59
71621;BME280;59471;42.254;23.102;2023-03-11T06:08:17;94240.59;;;8.81;92.12
71621;BME280;59471;42.254;23.102;2023-03-11T06:10:43;94241.31;;;9.15;90.04
71621;BME280;59471;42.254;23.102;2023-03-11T06:13:09;94234.03;;;9.17;89.46
71621;BME280;59471;42.254;23.102;2023-03-11T06:15:36;94236.66;;;9.17;89.52
71621;BME280;59471;42.254;23.102;2023-03-11T06:18:02;94261.50;;;8.81;90.24
71621;BME280;59471;42.254;23.102;2023-03-11T06:20:29;94259.50;;;8.83;91.46
71621;BME280;59471;42.254;23.102;2023-03-11T06:22:55;94254.16;;;9.10;90.28
71621;BME280;59471;42.254;23.102;2023-03-11T06:25:20;94256.72;;;9.23;89.83
71621;BME280;59471;42.254;23.102;2023-03-11T06:27:50;94246.97;;;9.05;90.17
71621;BME280;59471;42.254;23.102;2023-03-11T06:30:18;94251.00;;;8.94;91.18
71621;BME280;59471;42.254;23.102;2023-03-11T06:32:45;94242.06;;;9.22;88.70
71621;BME280;59471;42.254;23.102;2023-03-11T06:35:12;94242.38;;;9.39;87.11
71621;BME280;59471;42.254;23.102;2023-03-11T06:37:38;94253.63;;;9.46;86.51
71621;BME280;59471;42.254;23.102;2023-03-11T06:40:05;94240.25;;;9.61;86.25
71621;BME280;59471;42.254;23.102;2023-03-11T06:42:33;94236.59;;;9.68;85.61
71621;BME280;59471;42.254;23.102;2023-03-11T06:44:58;94228.81;;;9.62;87.39
71621;BME280;59471;42.254;23.102;2023-03-11T06:47:24;94227.88;;;9.49;85.56
71621;BME280;59471;42.254;23.102;2023-03-11T06:49:50;94233.13;;;9.43;87.73
71621;BME280;59471;42.254;23.102;2023-03-11T06:52:16;94229.41;;;9.57;87.62
71621;BME280;59471;42.254;23.102;2023-03-11T06:54:42;94230.38;;;9.31;88.07
71621;BME280;59471;42.254;23.102;2023-03-11T06:57:08;94238.13;;;9.06;90.09
71621;BME280;59471;42.254;23.102;2023-03-11T06:59:35;94248.41;;;9.39;87.42
71621;BME280;59471;42.254;23.102;2023-03-11T07:02:02;94240.47;;;9.59;86.88
71621;BME280;59471;42.254;23.102;2023-03-11T07:04:29;94223.34;;;9.63;85.78
71621;BME280;59471;42.254;23.102;2023-03-11T07:06:55;94237.06;;;9.59;86.13
71621;BME280;59471;42.254;23.102;2023-03-11T07:09:21;94234.50;;;9.77;85.18
71621;BME280;59471;42.254;23.102;2023-03-11T07:11:52;94234.94;;;9.74;86.30
71621;BME280;59471;42.254;23.102;2023-03-11T07:14:18;94239.81;;;9.32;86.03
71621;BME280;59471;42.254;23.102;2023-03-11T07:16:44;94249.25;;;9.71;86.08
71621;BME280;59471;42.254;23.102;2023-03-11T07:19:10;94238.66;;;9.91;84.61
71621;BME280;59471;42.254;23.102;2023-03-11T07:21:37;94234.34;;;10.04;84.06
71621;BME280;59471;42.254;23.102;2023-03-11T07:24:04;94230.88;;;10.10;82.40
71621;BME280;59471;42.254;23.102;2023-03-11T07:26:31;94237.78;;;9.72;84.81
71621;BME280;59471;42.254;23.102;2023-03-11T07:28:58;94234.22;;;9.92;84.51
71621;BME280;59471;42.254;23.102;2023-03-11T07:31:26;94234.22;;;10.17;83.65
71621;BME280;59471;42.254;23.102;2023-03-11T07:33:56;94226.88;;;10.32;83.70
71621;BME280;59471;42.254;23.102;2023-03-11T07:36:23;94220.38;;;10.60;83.05
71621;BME280;59471;42.254;23.102;2023-03-11T07:39:01;94215.53;;;10.82;81.09
71621;BME280;59471;42.254;23.102;2023-03-11T07:41:33;94210.66;;;10.85;80.06
71621;BME280;59471;42.254;23.102;2023-03-11T07:44:01;94193.19;;;10.98;78.75
71621;BME280;59471;42.254;23.102;2023-03-11T07:46:28;94199.38;;;11.33;75.01
71621;BME280;59471;42.254;23.102;2023-03-11T07:48:55;94197.03;;;11.44;69.66
71621;BME280;59471;42.254;23.102;2023-03-11T07:51:26;94196.56;;;11.47;72.60
71621;BME280;59471;42.254;23.102;2023-03-11T07:53:54;94192.06;;;11.54;75.86
71621;BME280;59471;42.254;23.102;2023-03-11T07:56:22;94195.13;;;11.51;75.45
71621;BME280;59471;42.254;23.102;2023-03-11T07:58:49;94195.47;;;11.66;76.24
71621;BME280;59471;42.254;23.102;2023-03-11T08:01:21;94182.75;;;11.81;73.07
71621;BME280;59471;42.254;23.102;2023-03-11T08:03:49;94181.22;;;12.04;71.56
71621;BME280;59471;42.254;23.102;2023-03-11T08:06:26;94190.94;;;12.27;69.47
71621;BME280;59471;42.254;23.102;2023-03-11T08:08:56;94177.91;;;12.32;68.92
71621;BME280;59471;42.254;23.102;2023-03-11T08:11:25;94183.84;;;12.51;67.22
71621;BME280;59471;42.254;23.102;2023-03-11T08:13:52;94175.97;;;12.51;64.99
71621;BME280;59471;42.254;23.102;2023-03-11T08:16:20;94173.69;;;12.66;66.84
71621;BME280;59471;42.254;23.102;2023-03-11T08:18:47;94166.91;;;12.82;66.52
71621;BME280;59471;42.254;23.102;2023-03-11T08:21:18;94163.91;;;13.02;66.04
71621;BME280;59471;42.254;23.102;2023-03-11T08:23:46;94159.84;;;13.11;64.19
71621;BME280;59471;42.254;23.102;2023-03-11T08:26:14;94150.63;;;12.68;64.06
71621;BME280;59471;42.254;23.102;2023-03-11T08:28:42;94148.97;;;12.91;63.14
71621;BME280;59471;42.254;23.102;2023-03-11T08:31:15;94150.50;;;13.15;64.28
71621;BME280;59471;42.254;23.102;2023-03-11T08:33:43;94144.41;;;13.27;64.00
71621;BME280;59471;42.254;23.102;2023-03-11T08:36:10;94148.06;;;13.26;61.40
71621;BME280;59471;42.254;23.102;2023-03-11T08:38:36;94149.00;;;13.08;59.05
71621;BME280;59471;42.254;23.102;2023-03-11T08:41:01;94139.84;;;12.82;59.55
71621;BME280;59471;42.254;23.102;2023-03-11T08:43:27;94136.69;;;13.08;57.81
71621;BME280;59471;42.254;23.102;2023-03-11T08:45:53;94128.81;;;13.08;61.72
71621;BME280;59471;42.254;23.102;2023-03-11T08:48:18;94127.03;;;13.26;63.29
71621;BME280;59471;42.254;23.102;2023-03-11T08:50:44;94128.09;;;13.41;62.21
71621;BME280;59471;42.254;23.102;2023-03-11T08:53:09;94118.41;;;13.76;62.68
71621;BME280;59471;42.254;23.102;2023-03-11T08:55:35;94120.47;;;14.07;61.14
71621;BME280;59471;42.254;23.102;2023-03-11T08:58:01;94115.63;;;13.99;59.19
71621;BME280;59471;42.254;23.102;2023-03-11T09:00:27;94120.81;;;13.94;59.59
71621;BME280;59471;42.254;23.102;2023-03-11T09:02:53;94117.44;;;13.99;59.91
71621;BME280;59471;42.254;23.102;2023-03-11T09:05:19;94108.19;;;13.96;59.59
71621;BME280;59471;42.254;23.102;2023-03-11T09:07:45;94109.16;;;13.73;59.04
71621;BME280;59471;42.254;23.102;2023-03-11T09:10:13;94107.25;;;13.68;58.95
71621;BME280;59471;42.254;23.102;2023-03-11T09:12:39;94092.28;;;13.69;60.04
71621;BME280;59471;42.254;23.102;2023-03-11T09:15:06;94082.84;;;13.90;61.15
71621;BME280;59471;42.254;23.102;2023-03-11T09:17:32;94090.75;;;13.90;59.05
71621;BME280;59471;42.254;23.102;2023-03-11T09:19:58;94089.34;;;13.65;57.04
71621;BME280;59471;42.254;23.102;2023-03-11T09:22:23;94086.19;;;14.02;58.30
71621;BME280;59471;42.254;23.102;2023-03-11T09:24:49;94088.44;;;13.94;57.10
71621;BME280;59471;42.254;23.102;2023-03-11T09:27:14;94081.13;;;13.79;55.27
71621;BME280;59471;42.254;23.102;2023-03-11T09:29:40;94068.75;;;13.79;57.04
71621;BME280;59471;42.254;23.102;2023-03-11T09:32:06;94088.44;;;13.77;57.35
71621;BME280;59471;42.254;23.102;2023-03-11T09:34:32;94082.66;;;14.13;57.36
71621;BME280;59471;42.254;23.102;2023-03-11T09:36:57;94067.28;;;14.44;54.43
71621;BME280;59471;42.254;23.102;2023-03-11T09:39:24;94072.88;;;14.31;55.18
71621;BME280;59471;42.254;23.102;2023-03-11T09:44:32;94086.69;;;13.82;53.07
71621;BME280;59471;42.254;23.102;2023-03-11T09:47:20;94076.88;;;13.95;54.24
71621;BME280;59471;42.254;23.102;2023-03-11T09:50:18;94074.41;;;14.66;55.74
71621;BME280;59471;42.254;23.102;2023-03-11T09:55:56;94065.13;;;15.07;55.18
71621;BME280;59471;42.254;23.102;2023-03-11T10:01:02;94070.81;;;14.33;50.80
71621;BME280;59471;42.254;23.102;2023-03-11T10:03:35;94069.22;;;14.32;54.75
71621;BME280;59471;42.254;23.102;2023-03-11T10:06:11;94080.13;;;14.19;55.82
71621;BME280;59471;42.254;23.102;2023-03-11T10:08:43;94082.84;;;13.90;53.00
71621;BME280;59471;42.254;23.102;2023-03-11T10:11:15;94087.97;;;13.80;53.38
71621;BME280;59471;42.254;23.102;2023-03-11T10:27:53;94090.94;;;13.21;56.00
71621;BME280;59471;42.254;23.102;2023-03-11T10:30:35;94106.44;;;13.22;58.22
71621;BME280;59471;42.254;23.102;2023-03-11T10:35:58;94110.84;;;12.76;60.48
71621;BME280;59471;42.254;23.102;2023-03-11T10:38:30;94113.41;;;12.60;61.44
71621;BME280;59471;42.254;23.102;2023-03-11T10:41:02;94115.63;;;12.80;64.90
71621;BME280;59471;42.254;23.102;2023-03-11T10:43:34;94116.34;;;12.75;66.63
71621;BME280;59471;42.254;23.102;2023-03-11T10:46:09;94115.44;;;12.69;66.30
71621;BME280;59471;42.254;23.102;2023-03-11T10:48:39;94119.41;;;12.84;65.28
71621;BME280;59471;42.254;23.102;2023-03-11T10:51:15;94107.09;;;13.01;64.56
71621;BME280;59471;42.254;23.102;2023-03-11T10:53:49;94101.56;;;13.14;64.70
71621;BME280;59471;42.254;23.102;2023-03-11T10:56:28;94103.56;;;13.36;65.39
71621;BME280;59471;42.254;23.102;2023-03-11T10:58:55;94099.75;;;13.43;63.55
71621;BME280;59471;42.254;23.102;2023-03-11T11:01:22;94101.66;;;13.48;63.44
71621;BME280;59471;42.254;23.102;2023-03-11T11:03:53;94097.22;;;13.82;64.96
71621;BME280;59471;42.254;23.102;2023-03-11T11:08:47;94102.63;;;14.09;65.47
71621;BME280;59471;42.254;23.102;2023-03-11T11:11:21;94099.56;;;14.18;65.66
71621;BME280;59471;42.254;23.102;2023-03-11T11:13:58;94094.69;;;14.26;64.88
71621;BME280;59471;42.254;23.102;2023-03-11T11:16:25;94099.44;;;14.07;64.00
71621;BME280;59471;42.254;23.102;2023-03-11T11:19:02;94081.38;;;14.16;64.45
71621;BME280;59471;42.254;23.102;2023-03-11T11:21:37;94085.38;;;14.19;63.30
71621;BME280;59471;42.254;23.102;2023-03-11T11:29:36;94057.81;;;14.26;58.75
71621;BME280;59471;42.254;23.102;2023-03-11T11:35:01;94063.66;;;14.28;59.40
71621;BME280;59471;42.254;23.102;2023-03-11T11:37:32;94063.69;;;14.11;60.50
71621;BME280;59471;42.254;23.102;2023-03-11T11:43:02;94045.53;;;13.93;59.84
71621;BME280;59471;42.254;23.102;2023-03-11T11:45:44;94033.00;;;14.00;59.71
71621;BME280;59471;42.254;23.102;2023-03-11T11:51:02;94046.81;;;13.90;58.90
71621;BME280;59471;42.254;23.102;2023-03-11T11:53:40;94043.94;;;13.92;60.46
71621;BME280;59471;42.254;23.102;2023-03-11T11:56:07;94042.34;;;13.91;60.97
71621;BME280;59471;42.254;23.102;2023-03-11T11:58:33;94033.06;;;14.05;62.49
71621;BME280;59471;42.254;23.102;2023-03-11T12:18:16;94026.31;;;14.75;58.35
71621;BME280;59471;42.254;23.102;2023-03-11T12:20:52;94012.22;;;14.65;58.99
71621;BME280;59471;42.254;23.102;2023-03-11T12:28:57;94003.78;;;15.86;55.35
71621;BME280;59471;42.254;23.102;2023-03-11T12:31:28;93996.47;;;15.98;52.75
71621;BME280;59471;42.254;23.102;2023-03-11T12:34:04;93993.75;;;15.19;52.79
71621;BME280;59471;42.254;23.102;2023-03-11T12:36:39;93997.41;;;15.13;52.55
71621;BME280;59471;42.254;23.102;2023-03-11T12:41:45;93983.13;;;14.54;52.38
71621;BME280;59471;42.254;23.102;2023-03-11T12:44:27;93983.78;;;14.67;53.75
71621;BME280;59471;42.254;23.102;2023-03-11T12:46:58;93974.94;;;14.78;53.15
71621;BME280;59471;42.254;23.102;2023-03-11T12:49:27;93980.81;;;14.85;52.89
71621;BME280;59471;42.254;23.102;2023-03-11T12:52:00;93986.22;;;15.00;54.16
71621;BME280;59471;42.254;23.102;2023-03-11T12:54:39;93988.63;;;15.02;52.73
71621;BME280;59471;42.254;23.102;2023-03-11T12:57:33;94009.00;;;15.12;52.86
71621;BME280;59471;42.254;23.102;2023-03-11T13:01:01;93997.16;;;14.87;52.00
71621;BME280;59471;42.254;23.102;2023-03-11T13:03:33;94004.31;;;15.19;52.46
71621;BME280;59471;42.254;23.102;2023-03-11T13:06:40;93999.38;;;14.95;50.12
71621;BME280;59471;42.254;23.102;2023-03-11T13:09:30;94004.22;;;15.09;51.95
71621;BME280;59471;42.254;23.102;2023-03-11T13:11:55;94002.03;;;15.00;51.04
71621;BME280;59471;42.254;23.102;2023-03-11T13:17:18;94014.09;;;14.91;52.77
71621;BME280;59471;42.254;23.102;2023-03-11T13:19:52;94002.34;;;14.33;52.50
71621;BME280;59471;42.254;23.102;2023-03-11T13:31:43;94007.91;;;14.53;52.51
71621;BME280;59471;42.254;23.102;2023-03-11T13:42:39;94028.19;;;14.36;54.86
71621;BME280;59471;42.254;23.102;2023-03-11T13:48:09;94025.75;;;14.29;55.96
71621;BME280;59471;42.254;23.102;2023-03-11T13:50:44;94016.38;;;14.17;54.70
71621;BME280;59471;42.254;23.102;2023-03-11T13:53:21;94024.81;;;13.97;55.76
71621;BME280;59471;42.254;23.102;2023-03-11T13:55:53;94030.69;;;14.04;55.09
71621;BME280;59471;42.254;23.102;2023-03-11T13:58:21;94041.22;;;14.04;55.85
71621;BME280;59471;42.254;23.102;2023-03-11T14:00:59;94050.13;;;14.03;57.73
71621;BME280;59471;42.254;23.102;2023-03-11T14:03:29;94053.16;;;14.11;56.78
71621;BME280;59471;42.254;23.102;2023-03-11T14:06:01;94059.09;;;13.85;58.45
71621;BME280;59471;42.254;23.102;2023-03-11T14:08:32;94062.75;;;13.84;58.77
71621;BME280;59471;42.254;23.102;2023-03-11T14:13:42;94068.66;;;13.74;56.71
71621;BME280;59471;42.254;23.102;2023-03-11T14:18:44;94075.03;;;13.61;57.70
71621;BME280;59471;42.254;23.102;2023-03-11T14:21:17;94083.19;;;13.43;58.11
71621;BME280;59471;42.254;23.102;2023-03-11T14:23:52;94082.69;;;13.17;60.84
71621;BME280;59471;42.254;23.102;2023-03-11T14:26:21;94101.16;;;13.06;63.01
71621;BME280;59471;42.254;23.102;2023-03-11T14:28:56;94103.00;;;13.05;62.95
71621;BME280;59471;42.254;23.102;2023-03-11T14:31:38;94111.44;;;13.07;63.06
71621;BME280;59471;42.254;23.102;2023-03-11T14:34:25;94115.66;;;13.08;62.25
71621;BME280;59471;42.254;23.102;2023-03-11T14:36:59;94124.03;;;13.05;63.14
71621;BME280;59471;42.254;23.102;2023-03-11T14:39:26;94123.19;;;12.76;61.79
71621;BME280;59471;42.254;23.102;2023-03-11T14:42:17;94130.94;;;12.83;60.68
71621;BME280;59471;42.254;23.102;2023-03-11T14:44:49;94129.38;;;12.70;61.61
71621;BME280;59471;42.254;23.102;2023-03-11T14:47:35;94131.94;;;12.93;61.63
71621;BME280;59471;42.254;23.102;2023-03-11T14:50:09;94126.75;;;12.98;61.69
71621;BME280;59471;42.254;23.102;2023-03-11T14:52:51;94134.66;;;12.98;62.82